Time;durP1;ratioP1;P1;durP2;ratioP2;P2;SDS_P1;SDS_P2;PMS_P1;PMS_P2;Temp;Humidity;BMP_temperature;BMP_pressure;BME280_temperature;BME280_humidity;BME280_pressure;Samples;Min_cycle;Max_cycle;Signal;HPM_P1;HPM_P2
2022/10/28 00:01:23;;;;;;;4.33;3.40;;;9.40;99.90;;;;;;5097150;28;21128;-83
2022/10/28 00:03:52;;;;;;;7.63;4.60;;;9.30;99.90;;;;;;5095373;28;20493;-83
2022/10/28 00:06:20;;;;;;;6.80;3.13;;;9.40;99.90;;;;;;5091514;28;20760;-83
2022/10/28 00:08:48;;;;;;;4.70;4.30;;;9.40;99.90;;;;;;5081903;28;20498;-83
2022/10/28 00:11:19;;;;;;;4.60;3.97;;;9.30;99.90;;;;;;5090200;28;20520;-83
2022/10/28 00:13:46;;;;;;;5.07;3.70;;;9.30;99.90;;;;;;5090966;28;20462;-83
2022/10/28 00:16:15;;;;;;;4.73;3.37;;;9.40;99.90;;;;;;5095526;28;20458;-81
2022/10/28 00:18:43;;;;;;;6.13;4.70;;;9.50;99.90;;;;;;5088778;28;20454;-81
2022/10/28 00:21:11;;;;;;;5.57;4.07;;;9.40;99.90;;;;;;5091449;28;20459;-81
2022/10/28 00:23:39;;;;;;;4.07;3.73;;;9.50;99.90;;;;;;5097156;28;20457;-81
2022/10/28 00:26:07;;;;;;;4.97;4.47;;;9.50;99.90;;;;;;5084188;28;20494;-80
2022/10/28 00:28:39;;;;;;;4.97;2.93;;;9.40;99.90;;;;;;5094071;28;20916;-82
2022/10/28 00:31:08;;;;;;;4.47;3.50;;;9.40;99.90;;;;;;5091042;28;20461;-81
2022/10/28 00:33:35;;;;;;;14.03;4.77;;;9.30;99.90;;;;;;5092025;28;20527;-81
2022/10/28 00:36:14;;;;;;;6.33;3.97;;;9.20;99.90;;;;;;5089319;28;20591;-80
2022/10/28 00:38:42;;;;;;;8.47;2.80;;;9.20;99.90;;;;;;5087830;28;20473;-81
2022/10/28 00:41:10;;;;;;;4.17;3.43;;;9.10;99.90;;;;;;5090922;28;20466;-81
2022/10/28 00:43:42;;;;;;;7.33;3.30;;;9.10;99.90;;;;;;5093049;28;20553;-82
2022/10/28 00:46:20;;;;;;;13.60;4.40;;;9.00;99.90;;;;;;5095494;28;20514;-82
2022/10/28 00:48:50;;;;;;;4.17;3.23;;;9.00;99.90;;;;;;5094346;28;20519;-82
2022/10/28 00:51:21;;;;;;;4.27;3.87;;;9.00;99.90;;;;;;5090011;28;20940;-81
2022/10/28 00:53:50;;;;;;;4.40;2.90;;;8.90;99.90;;;;;;5084852;28;21083;-81
2022/10/28 00:56:18;;;;;;;5.70;3.07;;;8.90;99.90;;;;;;5091404;28;20529;-82
2022/10/28 00:58:48;;;;;;;2.90;2.70;;;8.90;99.90;;;;;;5085477;28;20821;-81
2022/10/28 01:01:15;;;;;;;2.70;2.33;;;9.00;99.90;;;;;;5088863;28;20487;-81
2022/10/28 01:03:42;;;;;;;3.53;2.80;;;8.90;99.90;;;;;;5082897;28;21109;-82
2022/10/28 01:06:10;;;;;;;3.00;2.23;;;8.90;99.90;;;;;;5096034;28;20610;-81
2022/10/28 01:08:37;;;;;;;6.10;3.47;;;9.00;99.90;;;;;;5084914;28;20516;-81
2022/10/28 01:11:39;;;;;;;4.90;2.50;;;8.90;99.90;;;;;;5082875;28;20469;-82
2022/10/28 01:14:19;;;;;;;4.50;2.73;;;8.90;99.90;;;;;;5092620;28;20470;-81
2022/10/28 01:17:01;;;;;;;3.53;3.10;;;8.90;99.90;;;;;;5088555;28;20909;-81
2022/10/28 01:20:15;;;;;;;4.00;2.57;;;9.00;99.90;;;;;;5083337;28;20474;-81
2022/10/28 01:22:47;;;;;;;4.40;3.30;;;9.00;99.90;;;;;;5021715;28;20465;-82
2022/10/28 01:25:52;;;;;;;2.53;2.27;;;8.90;99.90;;;;;;5076553;28;20467;-82
2022/10/28 01:28:46;;;;;;;2.93;2.50;;;8.80;99.90;;;;;;5091461;28;20494;-81
2022/10/28 01:31:27;;;;;;;3.83;3.33;;;8.80;99.90;;;;;;5093527;28;20514;-81
2022/10/28 01:34:04;;;;;;;3.50;2.80;;;8.70;99.90;;;;;;5092591;28;20458;-82
2022/10/28 01:36:39;;;;;;;4.00;2.73;;;8.70;99.90;;;;;;5089572;28;20458;-84
2022/10/28 01:39:16;;;;;;;6.10;3.33;;;8.70;99.90;;;;;;5090045;28;21108;-84
2022/10/28 01:41:51;;;;;;;5.90;4.27;;;8.70;99.90;;;;;;5092971;28;20466;-81
2022/10/28 01:44:27;;;;;;;4.87;3.80;;;8.90;99.90;;;;;;5088481;28;20458;-81
2022/10/28 01:47:01;;;;;;;10.07;4.67;;;8.90;99.90;;;;;;5096759;28;21123;-81
2022/10/28 01:49:38;;;;;;;3.77;3.47;;;8.80;99.90;;;;;;5092064;28;20457;-81
2022/10/28 01:52:08;;;;;;;8.23;4.00;;;8.70;99.90;;;;;;5096866;28;20511;-81
2022/10/28 01:54:38;;;;;;;4.93;4.43;;;8.60;99.90;;;;;;5095388;28;20557;-81
2022/10/28 01:57:05;;;;;;;4.93;3.60;;;8.60;99.90;;;;;;5096551;28;20526;-81
2022/10/28 01:59:34;;;;;;;3.23;2.93;;;8.50;99.90;;;;;;5089377;28;20527;-81
2022/10/28 02:02:02;;;;;;;4.40;3.40;;;8.50;99.90;;;;;;5097454;28;20551;-81
2022/10/28 02:04:29;;;;;;;3.40;3.10;;;8.50;99.90;;;;;;5090472;28;20458;-81
2022/10/28 02:07:00;;;;;;;4.77;3.67;;;8.60;99.90;;;;;;5096499;28;20514;-81
2022/10/28 02:09:56;;;;;;;4.20;3.00;;;8.60;99.90;;;;;;5093711;28;20933;-81
2022/10/28 02:12:26;;;;;;;4.83;4.30;;;8.70;99.90;;;;;;5089938;28;20519;-82
2022/10/28 02:15:23;;;;;;;6.27;5.40;;;8.80;99.90;;;;;;5090791;27;21242;-81
2022/10/28 02:18:02;;;;;;;5.57;5.03;;;8.90;99.90;;;;;;5089823;28;21138;-81
2022/10/28 02:20:38;;;;;;;6.07;5.47;;;9.00;99.90;;;;;;5093856;28;20554;-82
2022/10/28 02:23:15;;;;;;;19.10;11.30;;;9.00;99.90;;;;;;5091335;28;20457;-82
2022/10/28 02:25:46;;;;;;;42.00;10.80;;;9.10;99.90;;;;;;5090903;28;20794;-82
2022/10/28 02:28:19;;;;;;;83.37;13.30;;;9.20;99.90;;;;;;5097061;28;20481;-81
2022/10/28 02:30:51;;;;;;;45.70;14.03;;;9.30;99.90;;;;;;5088390;28;20991;-82
2022/10/28 02:33:23;;;;;;;47.37;16.40;;;9.40;99.90;;;;;;5094680;28;20466;-82
2022/10/28 02:35:54;;;;;;;73.70;18.50;;;9.40;99.90;;;;;;5099023;28;21078;-82
2022/10/28 02:38:25;;;;;;;46.53;13.37;;;9.50;99.90;;;;;;5091580;28;20523;-81
2022/10/28 02:40:59;;;;;;;103.27;27.77;;;9.60;99.90;;;;;;5091031;28;20498;-82
2022/10/28 02:43:29;;;;;;;101.87;24.30;;;9.70;99.90;;;;;;5100393;28;20921;-81
2022/10/28 02:45:59;;;;;;;161.73;35.97;;;9.70;99.90;;;;;;5099037;28;20630;-81
2022/10/28 02:48:31;;;;;;;29.27;12.43;;;9.70;99.90;;;;;;5096224;28;20462;-81
2022/10/28 02:51:04;;;;;;;76.67;16.30;;;9.60;99.90;;;;;;5092344;28;20480;-82
2022/10/28 02:53:37;;;;;;;73.40;17.10;;;9.60;99.90;;;;;;5092668;28;20786;-81
2022/10/28 02:56:06;;;;;;;60.23;16.33;;;9.70;99.90;;;;;;5083955;28;20459;-81
2022/10/28 02:58:38;;;;;;;118.60;18.27;;;9.60;99.90;;;;;;5095122;28;20543;-81
2022/10/28 03:01:06;;;;;;;30.00;12.20;;;9.50;99.90;;;;;;5099420;28;20463;-81
2022/10/28 03:03:34;;;;;;;16.67;10.00;;;9.50;99.90;;;;;;5096229;28;20462;-81
2022/10/28 03:06:01;;;;;;;62.17;18.17;;;9.30;99.90;;;;;;5091968;28;20533;-81
2022/10/28 03:08:28;;;;;;;38.80;15.00;;;9.40;99.90;;;;;;5096600;28;20458;-81
2022/10/28 03:10:55;;;;;;;62.30;18.97;;;9.30;99.90;;;;;;5091786;28;20528;-81
2022/10/28 03:13:22;;;;;;;38.43;12.67;;;9.20;99.90;;;;;;5091187;28;20678;-81
2022/10/28 03:15:49;;;;;;;46.30;14.80;;;9.20;99.90;;;;;;5084752;28;20535;-81
2022/10/28 03:18:16;;;;;;;111.53;20.40;;;9.00;99.90;;;;;;5092848;28;20862;-81
2022/10/28 03:20:44;;;;;;;108.07;24.47;;;8.90;99.90;;;;;;5089022;28;20985;-81
2022/10/28 03:23:11;;;;;;;58.93;20.00;;;8.90;99.90;;;;;;5090537;28;20544;-81
2022/10/28 03:25:38;;;;;;;38.10;11.80;;;8.90;99.90;;;;;;5097902;28;20493;-81
2022/10/28 03:28:05;;;;;;;63.23;13.87;;;8.80;99.90;;;;;;5100152;28;21011;-81
2022/10/28 03:30:33;;;;;;;48.17;12.83;;;8.90;99.90;;;;;;5088885;28;20937;-81
2022/10/28 03:33:00;;;;;;;66.30;16.20;;;8.90;99.90;;;;;;5086196;28;20919;-81
2022/10/28 03:35:26;;;;;;;42.67;12.00;;;8.80;99.90;;;;;;5085727;28;20499;-81
2022/10/28 03:37:55;;;;;;;34.83;11.50;;;8.90;99.90;;;;;;5090907;28;20511;-81
2022/10/28 03:40:22;;;;;;;101.67;23.77;;;8.90;99.90;;;;;;5095348;28;20527;-81
2022/10/28 03:42:49;;;;;;;60.73;14.03;;;8.80;99.90;;;;;;5092932;28;20932;-81
2022/10/28 03:45:16;;;;;;;48.33;14.93;;;8.90;99.90;;;;;;5092835;28;20447;-81
2022/10/28 03:47:43;;;;;;;61.83;15.20;;;9.00;99.90;;;;;;5086638;28;20532;-81
2022/10/28 03:50:10;;;;;;;65.90;19.20;;;9.00;99.90;;;;;;5087460;28;20458;-81
2022/10/28 03:52:37;;;;;;;91.03;20.57;;;9.00;99.90;;;;;;5082955;28;20466;-81
2022/10/28 03:55:06;;;;;;;150.90;29.10;;;8.90;99.90;;;;;;5094683;28;20474;-81
2022/10/28 03:57:34;;;;;;;47.67;14.03;;;9.10;99.90;;;;;;5091415;28;20486;-81
2022/10/28 04:00:01;;;;;;;29.27;11.17;;;9.00;99.90;;;;;;5090794;28;21232;-81
2022/10/28 04:02:28;;;;;;;106.73;21.10;;;9.00;99.90;;;;;;5085631;28;20454;-81
2022/10/28 04:04:54;;;;;;;86.97;18.67;;;8.80;99.90;;;;;;5088869;28;20530;-81
2022/10/28 04:07:22;;;;;;;72.63;17.77;;;8.80;99.90;;;;;;5094785;28;20517;-81
2022/10/28 04:09:50;;;;;;;123.23;25.37;;;8.70;99.90;;;;;;5091313;28;20470;-81
2022/10/28 04:12:19;;;;;;;43.90;14.27;;;8.70;99.90;;;;;;5091841;28;20471;-81
2022/10/28 04:14:46;;;;;;;57.67;17.30;;;8.60;99.90;;;;;;5086461;28;20459;-81
2022/10/28 04:17:13;;;;;;;72.73;16.50;;;8.60;99.90;;;;;;5087225;28;20520;-81
2022/10/28 04:19:40;;;;;;;112.70;22.83;;;8.70;99.90;;;;;;5092571;28;20902;-81
2022/10/28 04:22:08;;;;;;;90.97;19.10;;;8.90;99.90;;;;;;5094414;28;20462;-81
2022/10/28 04:24:35;;;;;;;138.17;31.07;;;9.00;99.90;;;;;;5087968;28;20494;-81
2022/10/28 04:27:02;;;;;;;94.20;20.27;;;9.00;99.90;;;;;;5086985;28;20526;-81
2022/10/28 04:29:32;;;;;;;259.20;37.03;;;8.90;99.90;;;;;;5089184;28;20471;-80
2022/10/28 04:31:59;;;;;;;299.23;50.70;;;9.00;99.90;;;;;;5087256;28;20545;-81
2022/10/28 04:34:26;;;;;;;84.47;19.20;;;9.00;99.90;;;;;;5089657;28;20492;-81
2022/10/28 04:36:53;;;;;;;92.33;22.17;;;8.90;99.90;;;;;;5095312;28;20782;-80
2022/10/28 04:39:20;;;;;;;85.20;17.90;;;8.90;99.90;;;;;;5094339;28;20922;-81
2022/10/28 04:41:47;;;;;;;86.20;19.00;;;8.90;99.90;;;;;;5093496;28;20535;-81
2022/10/28 04:44:14;;;;;;;102.17;20.33;;;8.90;99.90;;;;;;5096552;28;20459;-80
2022/10/28 04:46:42;;;;;;;96.47;26.63;;;8.90;99.90;;;;;;5088446;28;20485;-81
2022/10/28 04:49:10;;;;;;;134.37;26.57;;;8.90;99.90;;;;;;5093925;28;20925;-81
2022/10/28 04:51:37;;;;;;;109.83;25.20;;;8.90;99.90;;;;;;5092941;28;20466;-81
2022/10/28 04:54:04;;;;;;;187.57;37.80;;;8.90;99.90;;;;;;5090275;28;20485;-81
2022/10/28 04:56:32;;;;;;;166.00;33.30;;;8.80;99.90;;;;;;5098665;28;20462;-81
2022/10/28 04:58:59;;;;;;;147.53;28.40;;;8.80;99.90;;;;;;5090837;28;20519;-81
2022/10/28 05:01:26;;;;;;;41.30;15.20;;;8.80;99.90;;;;;;5099286;28;20550;-81
2022/10/28 05:03:54;;;;;;;148.53;34.73;;;8.70;99.90;;;;;;5097585;28;20943;-81
2022/10/28 05:06:21;;;;;;;63.00;19.27;;;8.70;99.90;;;;;;5099702;28;20784;-80
2022/10/28 05:08:48;;;;;;;110.07;26.00;;;8.80;99.90;;;;;;5089483;28;20697;-81
2022/10/28 05:11:15;;;;;;;168.90;34.83;;;8.80;99.90;;;;;;5096017;28;20485;-81
2022/10/28 05:13:42;;;;;;;54.43;18.40;;;8.80;99.90;;;;;;5090247;28;20558;-81
2022/10/28 05:16:09;;;;;;;156.83;35.90;;;8.80;99.90;;;;;;5097477;28;20531;-81
2022/10/28 05:18:36;;;;;;;87.97;22.87;;;8.80;99.90;;;;;;5096386;28;20514;-81
2022/10/28 05:21:04;;;;;;;57.43;17.90;;;8.80;99.90;;;;;;5096667;28;20457;-80
2022/10/28 05:23:31;;;;;;;136.20;29.93;;;8.80;99.90;;;;;;5093840;28;20465;-81
2022/10/28 05:25:58;;;;;;;109.73;28.53;;;8.80;99.90;;;;;;5102722;28;20494;-81
2022/10/28 05:28:25;;;;;;;120.40;27.77;;;8.90;99.90;;;;;;5103835;28;20486;-81
2022/10/28 05:30:52;;;;;;;88.67;25.00;;;8.90;99.90;;;;;;5094301;28;20884;-81
2022/10/28 05:33:19;;;;;;;84.90;27.53;;;8.80;99.90;;;;;;5104244;28;20449;-81
2022/10/28 05:35:46;;;;;;;89.77;24.97;;;8.90;99.90;;;;;;5087879;28;20459;-81
2022/10/28 05:38:14;;;;;;;228.40;43.33;;;8.90;99.90;;;;;;5098246;28;20460;-81
2022/10/28 05:40:42;;;;;;;62.30;20.13;;;8.90;99.90;;;;;;5092246;28;20447;-81
2022/10/28 05:43:10;;;;;;;64.90;23.50;;;8.80;99.90;;;;;;5087524;28;20886;-81
2022/10/28 05:45:37;;;;;;;24.10;13.20;;;8.80;99.90;;;;;;5088344;28;20515;-81
2022/10/28 05:48:04;;;;;;;57.63;19.90;;;8.80;99.90;;;;;;5085907;28;20869;-81
2022/10/28 05:50:31;;;;;;;67.10;21.00;;;8.80;99.90;;;;;;5090627;28;20565;-81
2022/10/28 05:52:58;;;;;;;250.13;43.07;;;8.80;99.90;;;;;;5090663;28;20504;-81
2022/10/28 05:55:30;;;;;;;152.43;30.13;;;8.70;99.90;;;;;;5101165;28;20465;-81
2022/10/28 05:57:57;;;;;;;326.53;58.67;;;8.70;99.90;;;;;;5097337;28;20454;-81
2022/10/28 06:00:26;;;;;;;69.17;21.13;;;8.90;99.90;;;;;;5086634;28;20528;-81
2022/10/28 06:02:53;;;;;;;90.03;20.30;;;8.90;99.90;;;;;;5088510;28;20462;-81
2022/10/28 06:05:20;;;;;;;45.87;17.20;;;8.70;99.90;;;;;;5086963;28;20970;-81
2022/10/28 06:07:47;;;;;;;156.07;34.30;;;8.60;99.90;;;;;;5085422;28;20908;-81
2022/10/28 06:10:14;;;;;;;31.93;14.30;;;8.50;99.90;;;;;;5090799;27;20458;-82
2022/10/28 06:12:42;;;;;;;32.17;12.20;;;8.50;99.90;;;;;;5087088;28;20462;-82
2022/10/28 06:15:10;;;;;;;123.00;21.03;;;8.50;99.90;;;;;;5091734;28;20486;-81
2022/10/28 06:17:37;;;;;;;95.13;20.30;;;8.50;99.90;;;;;;5091685;28;20459;-81
2022/10/28 06:20:05;;;;;;;75.20;17.97;;;8.50;99.90;;;;;;5095953;28;20454;-81
2022/10/28 06:22:32;;;;;;;76.07;20.60;;;8.60;99.90;;;;;;5092772;28;20457;-82
2022/10/28 06:24:59;;;;;;;180.90;30.47;;;8.60;99.90;;;;;;5087974;28;20478;-82
2022/10/28 06:27:26;;;;;;;125.37;25.23;;;8.70;99.90;;;;;;5089306;28;21126;-82
2022/10/28 06:29:54;;;;;;;158.17;29.60;;;8.70;99.90;;;;;;5091450;28;20477;-81
2022/10/28 06:32:21;;;;;;;316.70;54.80;;;8.60;99.90;;;;;;5095561;28;21282;-82
2022/10/28 06:34:48;;;;;;;116.43;24.63;;;8.70;99.90;;;;;;5094369;27;20551;-82
2022/10/28 06:37:15;;;;;;;77.37;15.50;;;8.70;99.90;;;;;;5095259;28;20499;-82
2022/10/28 06:39:43;;;;;;;80.27;17.00;;;8.80;99.90;;;;;;5089758;28;20463;-81
2022/10/28 06:42:10;;;;;;;97.73;21.90;;;8.70;99.90;;;;;;5095623;28;20783;-81
2022/10/28 06:44:37;;;;;;;171.87;28.80;;;8.70;99.90;;;;;;5092295;28;21187;-82
2022/10/28 06:47:05;;;;;;;42.07;12.10;;;8.90;99.90;;;;;;5094507;28;20516;-82
2022/10/28 06:49:32;;;;;;;51.57;14.63;;;8.90;99.90;;;;;;5093299;28;20466;-81
2022/10/28 06:51:59;;;;;;;110.53;27.27;;;8.90;99.90;;;;;;5094792;28;20538;-82
2022/10/28 06:54:26;;;;;;;186.37;28.50;;;8.90;99.90;;;;;;5088693;28;20458;-86
2022/10/28 06:56:53;;;;;;;105.33;20.43;;;8.90;99.90;;;;;;5098268;28;20538;-82
2022/10/28 06:59:20;;;;;;;104.13;20.20;;;8.80;99.90;;;;;;5088574;28;20518;-82
2022/10/28 07:01:47;;;;;;;114.33;25.03;;;8.70;99.90;;;;;;5090581;28;20509;-82
2022/10/28 07:04:15;;;;;;;34.80;11.30;;;8.70;99.90;;;;;;5100282;28;20516;-82
2022/10/28 07:06:42;;;;;;;83.73;20.17;;;8.70;99.90;;;;;;5090437;28;20459;-82
2022/10/28 07:09:13;;;;;;;71.90;13.33;;;8.70;99.90;;;;;;5095599;28;21205;-82
2022/10/28 07:11:42;;;;;;;92.37;22.67;;;8.60;99.90;;;;;;5094978;28;20546;-83
2022/10/28 07:14:09;;;;;;;100.50;20.83;;;8.70;99.90;;;;;;5092388;28;20516;-82
2022/10/28 07:16:36;;;;;;;87.63;15.03;;;8.80;99.90;;;;;;5094395;28;20563;-82
2022/10/28 07:19:03;;;;;;;72.80;17.67;;;8.80;99.90;;;;;;5086378;28;20516;-82
2022/10/28 07:21:31;;;;;;;84.00;21.13;;;9.00;99.90;;;;;;5093211;27;20519;-82
2022/10/28 07:23:58;;;;;;;153.70;22.80;;;9.00;99.90;;;;;;5100310;28;20553;-82
2022/10/28 07:26:26;;;;;;;82.67;15.93;;;9.10;99.90;;;;;;5096573;28;20527;-82
2022/10/28 07:28:53;;;;;;;87.83;20.07;;;9.10;99.90;;;;;;5089455;28;20943;-82
2022/10/28 07:31:21;;;;;;;71.93;22.87;;;9.30;99.90;;;;;;5091757;28;20458;-82
2022/10/28 07:33:52;;;;;;;155.10;25.93;;;9.50;99.90;;;;;;5091511;28;20522;-82
2022/10/28 07:36:20;;;;;;;94.87;19.40;;;9.70;99.90;;;;;;5107486;28;20442;-82
2022/10/28 07:38:51;;;;;;;215.47;33.30;;;9.70;99.90;;;;;;5110841;28;20526;-82
2022/10/28 07:41:20;;;;;;;212.53;31.40;;;9.40;99.90;;;;;;5090657;28;20462;-82
2022/10/28 07:43:47;;;;;;;227.10;37.80;;;9.40;99.90;;;;;;5081503;28;20493;-82
2022/10/28 07:46:14;;;;;;;333.57;54.17;;;9.60;99.90;;;;;;5090251;28;20548;-82
2022/10/28 07:48:42;;;;;;;214.93;39.03;;;9.70;99.90;;;;;;5097727;28;20497;-83
2022/10/28 07:51:12;;;;;;;284.60;49.10;;;9.90;99.90;;;;;;5093511;28;20463;-82
2022/10/28 07:53:39;;;;;;;87.83;20.00;;;10.10;99.90;;;;;;5091651;28;20994;-83
2022/10/28 07:56:12;;;;;;;128.20;23.43;;;10.10;99.90;;;;;;5093031;28;20491;-82
2022/10/28 07:58:40;;;;;;;129.83;22.40;;;9.90;99.90;;;;;;5100856;28;20472;-83
2022/10/28 08:01:09;;;;;;;168.70;26.73;;;10.10;99.90;;;;;;5090097;28;20473;-83
2022/10/28 08:03:36;;;;;;;239.47;35.77;;;10.10;99.90;;;;;;5092704;28;20843;-83
2022/10/28 08:06:06;;;;;;;257.10;34.67;;;10.40;99.90;;;;;;5079072;28;20534;-83
2022/10/28 08:08:33;;;;;;;163.57;30.73;;;10.20;99.90;;;;;;5078362;28;20513;-83
2022/10/28 08:11:07;;;;;;;228.27;34.20;;;10.10;99.90;;;;;;5088770;28;20992;-83
2022/10/28 08:13:34;;;;;;;269.90;30.03;;;10.30;99.90;;;;;;5091092;28;20529;-82
2022/10/28 08:16:01;;;;;;;183.27;32.70;;;10.30;99.90;;;;;;5092243;28;20454;-82
2022/10/28 08:18:28;;;;;;;372.93;52.57;;;10.50;99.90;;;;;;5092058;28;20466;-82
2022/10/28 08:20:58;;;;;;;175.53;23.77;;;10.60;99.90;;;;;;5093867;28;20496;-83
2022/10/28 08:23:25;;;;;;;94.03;17.00;;;10.50;99.90;;;;;;5090153;28;20793;-83
2022/10/28 08:25:52;;;;;;;62.77;12.60;;;10.70;99.90;;;;;;5090571;28;20453;-82
2022/10/28 08:28:21;;;;;;;105.30;20.80;;;10.70;99.90;;;;;;5089710;28;20518;-82
2022/10/28 08:30:48;;;;;;;114.47;14.37;;;10.70;99.90;;;;;;5090771;28;20454;-83
2022/10/28 08:33:16;;;;;;;87.57;13.13;;;10.50;99.90;;;;;;5085650;28;20471;-83
2022/10/28 08:35:43;;;;;;;153.50;21.93;;;10.20;99.90;;;;;;5088514;28;20495;-82
2022/10/28 08:38:11;;;;;;;40.43;10.27;;;10.40;99.90;;;;;;5087913;28;20454;-83
2022/10/28 08:40:47;;;;;;;45.43;11.53;;;10.70;99.90;;;;;;5089112;28;20459;-83
2022/10/28 08:43:25;;;;;;;40.50;9.87;;;10.80;99.90;;;;;;5093216;28;20510;-83
2022/10/28 08:45:57;;;;;;;16.43;7.43;;;10.90;99.90;;;;;;5087863;28;20973;-82
2022/10/28 08:48:31;;;;;;;8.93;6.70;;;11.10;99.90;;;;;;5091797;28;20482;-82
2022/10/28 08:51:06;;;;;;;22.83;7.40;;;11.40;99.90;;;;;;5085980;28;21042;-83
2022/10/28 08:53:40;;;;;;;80.87;11.30;;;11.40;99.90;;;;;;5091395;28;20465;-83
2022/10/28 08:56:14;;;;;;;10.63;5.67;;;11.50;99.90;;;;;;5083804;28;20490;-83
2022/10/28 08:58:45;;;;;;;20.70;7.17;;;11.70;99.90;;;;;;5091362;28;20790;-82
2022/10/28 09:01:21;;;;;;;13.30;6.00;;;11.90;99.90;;;;;;5094231;28;20516;-82
2022/10/28 09:03:52;;;;;;;6.47;5.90;;;12.00;99.90;;;;;;5084982;28;20475;-82
2022/10/28 09:06:19;;;;;;;6.27;5.70;;;12.20;99.90;;;;;;5095677;28;20535;-82
2022/10/28 09:08:49;;;;;;;5.63;4.90;;;12.00;99.90;;;;;;5083171;28;20539;-82
2022/10/28 09:11:48;;;;;;;4.63;4.23;;;12.00;99.90;;;;;;5090917;28;20516;-83
2022/10/28 09:14:42;;;;;;;6.10;5.50;;;12.20;99.90;;;;;;5090511;28;20495;-82
2022/10/28 09:17:17;;;;;;;6.33;4.73;;;12.30;99.90;;;;;;5083009;28;20460;-83
2022/10/28 09:19:48;;;;;;;5.67;5.13;;;12.40;99.90;;;;;;5101261;28;20455;-82
2022/10/28 09:22:25;;;;;;;9.67;5.80;;;12.20;99.90;;;;;;5093331;28;20805;-82
2022/10/28 09:24:54;;;;;;;8.87;6.60;;;12.20;99.90;;;;;;5091545;28;20468;-82
2022/10/28 09:27:49;;;;;;;6.43;5.83;;;12.10;99.90;;;;;;5091481;28;20562;-82
2022/10/28 09:30:33;;;;;;;5.20;4.80;;;11.80;99.90;;;;;;5082579;28;20545;-82
2022/10/28 09:33:08;;;;;;;7.30;4.00;;;11.70;99.90;;;;;;5092216;28;20462;-82
2022/10/28 09:35:40;;;;;;;5.53;5.13;;;12.00;99.90;;;;;;5088678;28;20491;-82
2022/10/28 09:38:18;;;;;;;5.90;5.30;;;11.90;99.90;;;;;;5089781;28;20524;-82
2022/10/28 09:40:50;;;;;;;8.20;7.33;;;12.00;99.90;;;;;;5109077;28;20455;-81
2022/10/28 09:43:23;;;;;;;9.40;6.30;;;12.20;99.90;;;;;;5106360;28;20448;-82
2022/10/28 09:45:55;;;;;;;5.37;4.97;;;11.90;99.90;;;;;;5098412;28;20457;-82
2022/10/28 09:48:25;;;;;;;6.13;5.40;;;11.90;99.90;;;;;;5088054;28;20559;-82
2022/10/28 09:50:55;;;;;;;6.80;6.20;;;11.90;99.90;;;;;;5095758;28;20516;-82
2022/10/28 09:53:31;;;;;;;6.37;5.60;;;11.70;99.90;;;;;;5084125;28;20915;-82
2022/10/28 09:55:58;;;;;;;7.30;6.57;;;11.90;99.90;;;;;;5092228;28;20443;-82
2022/10/28 09:58:25;;;;;;;6.57;5.97;;;12.10;99.90;;;;;;5087106;28;21014;-82
2022/10/28 10:00:53;;;;;;;6.20;5.70;;;12.10;99.90;;;;;;5101332;28;20883;-82
2022/10/28 10:03:20;;;;;;;6.77;6.17;;;12.00;99.90;;;;;;5095938;27;20494;-82
2022/10/28 10:05:51;;;;;;;6.83;6.23;;;11.80;99.90;;;;;;5102459;28;21104;-82
2022/10/28 10:08:20;;;;;;;6.90;6.20;;;11.90;99.90;;;;;;5085192;28;20524;-82
2022/10/28 10:10:51;;;;;;;7.07;6.13;;;11.60;99.90;;;;;;5087751;28;20443;-82
2022/10/28 10:13:23;;;;;;;8.07;7.10;;;11.90;99.90;;;;;;5089782;28;21078;-83
2022/10/28 10:15:55;;;;;;;8.00;7.20;;;12.10;99.90;;;;;;5093814;28;20458;-81
2022/10/28 10:18:26;;;;;;;7.07;6.47;;;12.40;99.90;;;;;;5092587;28;20464;-81
2022/10/28 10:20:57;;;;;;;7.37;6.67;;;12.70;99.90;;;;;;5091228;28;20514;-81
2022/10/28 10:23:28;;;;;;;8.10;7.43;;;13.40;99.90;;;;;;5089398;28;20463;-82
2022/10/28 10:26:01;;;;;;;6.73;6.23;;;13.50;99.90;;;;;;5093013;28;20517;-81
2022/10/28 10:28:29;;;;;;;8.60;6.53;;;13.50;99.90;;;;;;5095516;28;20655;-81
2022/10/28 10:30:59;;;;;;;5.17;4.67;;;13.50;99.90;;;;;;5089173;28;20542;-81
2022/10/28 10:33:33;;;;;;;5.67;4.97;;;13.50;99.90;;;;;;5094673;28;20847;-82
2022/10/28 10:36:03;;;;;;;5.80;5.30;;;13.30;99.90;;;;;;5085049;28;21048;-81
2022/10/28 10:38:31;;;;;;;5.50;5.00;;;13.00;99.90;;;;;;5091371;28;20843;-82
2022/10/28 10:40:58;;;;;;;6.07;5.47;;;13.10;99.90;;;;;;5093503;28;20469;-82
2022/10/28 10:43:30;;;;;;;6.17;5.67;;;13.50;99.90;;;;;;5096827;28;20460;-82
2022/10/28 10:46:04;;;;;;;7.17;5.73;;;13.20;99.90;;;;;;5086085;28;20474;-82
2022/10/28 10:48:35;;;;;;;4.97;4.57;;;13.00;99.90;;;;;;5085329;28;20470;-82
2022/10/28 10:51:07;;;;;;;6.27;5.77;;;13.10;99.90;;;;;;5096889;28;20457;-82
2022/10/28 10:53:35;;;;;;;6.97;6.33;;;13.30;99.90;;;;;;5104922;28;20498;-82
2022/10/28 10:56:04;;;;;;;6.60;5.97;;;13.40;99.90;;;;;;5090930;28;20474;-81
2022/10/28 10:58:34;;;;;;;6.57;6.03;;;13.60;99.90;;;;;;5094844;28;20465;-82
2022/10/28 11:01:06;;;;;;;6.23;5.73;;;13.60;99.90;;;;;;5099463;28;20824;-81
2022/10/28 11:03:37;;;;;;;7.40;6.50;;;13.50;99.90;;;;;;5094334;28;20457;-81
2022/10/28 11:06:07;;;;;;;7.77;6.20;;;13.60;99.90;;;;;;5098087;28;20441;-82
2022/10/28 11:08:37;;;;;;;7.10;6.50;;;13.80;99.90;;;;;;5085746;28;20803;-82
2022/10/28 11:11:11;;;;;;;6.77;6.13;;;13.90;99.90;;;;;;5096265;28;20443;-81
2022/10/28 11:13:39;;;;;;;6.70;6.30;;;13.80;99.90;;;;;;5089459;28;20455;-82
2022/10/28 11:16:17;;;;;;;6.73;6.13;;;13.50;99.90;;;;;;5088028;28;20467;-82
2022/10/28 11:18:46;;;;;;;7.70;7.00;;;13.50;99.90;;;;;;5091560;28;20463;-81
2022/10/28 11:21:46;;;;;;;6.20;5.70;;;13.30;99.90;;;;;;5086451;28;20453;-81
2022/10/28 11:24:32;;;;;;;6.33;5.73;;;13.30;99.90;;;;;;5087155;28;21009;-82
2022/10/28 11:27:08;;;;;;;7.00;6.40;;;13.30;99.90;;;;;;5089923;28;20471;-82
2022/10/28 11:29:35;;;;;;;6.70;6.20;;;13.60;99.90;;;;;;5095273;28;20486;-82
2022/10/28 11:32:18;;;;;;;6.40;5.83;;;13.50;99.90;;;;;;5092064;28;20898;-82
2022/10/28 11:35:03;;;;;;;7.70;7.00;;;13.60;99.90;;;;;;5100597;28;20459;-82
2022/10/28 11:37:46;;;;;;;6.60;6.10;;;13.80;99.90;;;;;;5087347;28;20539;-82
2022/10/28 11:40:29;;;;;;;6.43;6.00;;;13.70;99.90;;;;;;5091771;28;21101;-82
2022/10/28 11:43:08;;;;;;;6.47;5.97;;;13.60;99.90;;;;;;5099678;28;20501;-82
2022/10/28 11:45:44;;;;;;;7.30;6.57;;;13.80;99.90;;;;;;5093251;28;21009;-81
2022/10/28 11:48:31;;;;;;;6.67;6.07;;;14.00;99.90;;;;;;5093632;28;20527;-82
2022/10/28 11:51:08;;;;;;;7.20;6.50;;;14.10;99.90;;;;;;5087383;28;20555;-82
2022/10/28 11:54:08;;;;;;;7.13;6.53;;;14.30;99.90;;;;;;5090062;28;20470;-82
2022/10/28 11:56:38;;;;;;;9.87;6.77;;;14.20;99.90;;;;;;5101256;27;20964;-82
2022/10/28 11:59:24;;;;;;;6.70;5.90;;;14.10;99.90;;;;;;5100526;28;20483;-82
2022/10/28 12:02:04;;;;;;;7.37;6.17;;;14.10;99.90;;;;;;5089406;28;22282;-82
2022/10/28 12:04:47;;;;;;;6.13;5.60;;;14.20;99.90;;;;;;5090172;28;20951;-81
2022/10/28 12:07:43;;;;;;;6.40;5.67;;;14.30;99.90;;;;;;5088753;28;20442;-82
2022/10/28 12:10:24;;;;;;;5.57;5.07;;;14.40;99.90;;;;;;5090934;28;20560;-82
2022/10/28 12:13:02;;;;;;;6.57;5.30;;;14.50;99.90;;;;;;5087951;28;20535;-81
2022/10/28 12:15:34;;;;;;;5.90;5.60;;;14.50;99.90;;;;;;5089882;28;20456;-81
2022/10/28 12:18:09;;;;;;;6.93;5.37;;;14.40;99.90;;;;;;5083178;28;20911;-82
2022/10/28 12:20:42;;;;;;;5.57;5.03;;;14.50;99.90;;;;;;5100210;28;20443;-82
2022/10/28 12:23:13;;;;;;;6.97;5.70;;;14.60;99.90;;;;;;5091846;28;20463;-82
2022/10/28 12:25:43;;;;;;;7.23;4.80;;;14.80;99.90;;;;;;5091042;28;20889;-83
2022/10/28 12:28:18;;;;;;;8.53;5.10;;;14.70;99.90;;;;;;5088936;28;20523;-82
2022/10/28 12:30:47;;;;;;;5.57;5.07;;;14.70;99.90;;;;;;5092008;28;20573;-82
2022/10/28 12:33:17;;;;;;;12.33;5.63;;;14.70;99.90;;;;;;5085691;28;20528;-83
2022/10/28 12:35:50;;;;;;;5.80;4.70;;;14.80;99.90;;;;;;5093618;28;20461;-82
2022/10/28 12:38:24;;;;;;;5.37;4.60;;;14.90;99.90;;;;;;5089293;28;20845;-82
2022/10/28 12:40:56;;;;;;;4.47;4.03;;;15.00;99.90;;;;;;5086177;28;20986;-82
2022/10/28 12:43:29;;;;;;;6.20;5.50;;;15.20;99.90;;;;;;5095771;28;20470;-82
2022/10/28 12:45:56;;;;;;;6.23;5.60;;;15.10;99.90;;;;;;5087925;28;20523;-82
2022/10/28 12:48:32;;;;;;;5.50;5.10;;;15.10;99.90;;;;;;5090739;28;20470;-82
2022/10/28 12:51:08;;;;;;;8.20;5.77;;;15.00;99.90;;;;;;5091436;28;20495;-82
2022/10/28 12:53:40;;;;;;;5.73;5.00;;;15.00;99.90;;;;;;5085485;28;20553;-82
2022/10/28 12:56:13;;;;;;;10.13;6.47;;;15.00;99.90;;;;;;5088120;28;20494;-82
2022/10/28 12:58:47;;;;;;;7.73;5.70;;;15.10;99.90;;;;;;5089365;28;20831;-82
2022/10/28 13:01:16;;;;;;;6.57;5.97;;;15.30;99.90;;;;;;5084869;28;21079;-80